Time;durP1;ratioP1;P1;durP2;ratioP2;P2;SDS_P1;SDS_P2;PMS_P1;PMS_P2;Temp;Humidity;BMP_temperature;BMP_pressure;BME280_temperature;BME280_humidity;BME280_pressure;Samples;Min_cycle;Max_cycle;Signal;HPM_P1;HPM_P2
2022/07/05 00:01:33;;;;;;;4.25;2.10;;;;;;;;;;6016809;29;20150;-80
2022/07/05 00:04:34;;;;;;;3.05;2.30;;;;;;;;;;6005009;29;20117;-81
2022/07/05 00:07:36;;;;;;;2.38;2.08;;;;;;;;;;6029389;29;20448;-81
2022/07/05 00:10:38;;;;;;;3.60;2.38;;;;;;;;;;6028860;29;20077;-80
2022/07/05 00:13:40;;;;;;;4.13;1.83;;;;;;;;;;6017313;29;20059;-81
2022/07/05 00:16:42;;;;;;;3.88;2.00;;;;;;;;;;6016379;29;20066;-81
2022/07/05 00:19:44;;;;;;;2.00;1.90;;;;;;;;;;6014750;29;20049;-81
2022/07/05 00:22:45;;;;;;;2.40;2.20;;;;;;;;;;6033867;29;20519;-80
2022/07/05 00:25:47;;;;;;;5.53;2.80;;;;;;;;;;6028305;29;20109;-80
2022/07/05 00:28:49;;;;;;;2.88;2.45;;;;;;;;;;6012497;29;20061;-80
2022/07/05 00:31:50;;;;;;;3.03;2.30;;;;;;;;;;6015938;29;20056;-81
2022/07/05 00:34:52;;;;;;;2.60;2.33;;;;;;;;;;6033031;29;20070;-80
2022/07/05 00:37:54;;;;;;;2.38;1.95;;;;;;;;;;6001717;29;20137;-80
2022/07/05 00:40:55;;;;;;;2.55;2.15;;;;;;;;;;6010730;29;20042;-80
2022/07/05 00:44:00;;;;;;;2.90;2.40;;;;;;;;;;6028496;29;20169;-81
2022/07/05 00:47:03;;;;;;;2.50;2.30;;;;;;;;;;6015617;29;20045;-80
2022/07/05 00:50:05;;;;;;;;;;;;;;;;;;6009764;29;20045;-80
2022/07/05 00:53:06;;;;;;;2.65;2.30;;;;;;;;;;6029746;29;19932;-81
2022/07/05 00:56:10;;;;;;;3.25;2.03;;;;;;;;;;5997254;29;20050;-80
2022/07/05 00:59:11;;;;;;;2.47;2.10;;;;;;;;;;6016151;29;20050;-80
2022/07/05 01:02:13;;;;;;;2.90;2.22;;;;;;;;;;6031937;29;20101;-80
2022/07/05 01:05:21;;;;;;;3.75;2.30;;;;;;;;;;6022787;29;20060;-80
2022/07/05 01:08:24;;;;;;;2.78;2.13;;;;;;;;;;6000556;29;20474;-81
2022/07/05 01:11:26;;;;;;;2.50;2.30;;;;;;;;;;6016183;29;20050;-81
2022/07/05 01:14:27;;;;;;;3.75;2.22;;;;;;;;;;6030560;29;20061;-81
2022/07/05 01:17:29;;;;;;;2.65;2.33;;;;;;;;;;6014397;29;20053;-81
2022/07/05 01:20:31;;;;;;;2.65;2.42;;;;;;;;;;5992868;29;20150;-80
2022/07/05 01:23:33;;;;;;;2.77;2.30;;;;;;;;;;6016675;29;20112;-79
2022/07/05 01:26:37;;;;;;;3.75;2.60;;;;;;;;;;6026631;29;20442;-80
2022/07/05 01:29:40;;;;;;;3.70;2.40;;;;;;;;;;6011689;29;20046;-80
2022/07/05 01:32:42;;;;;;;3.63;2.20;;;;;;;;;;6014630;29;20061;-81
2022/07/05 01:35:45;;;;;;;3.05;2.55;;;;;;;;;;6013167;29;20078;-81
2022/07/05 01:38:46;;;;;;;4.22;2.50;;;;;;;;;;5996054;29;20057;-81
2022/07/05 01:41:48;;;;;;;3.38;2.50;;;;;;;;;;6005608;29;20064;-81
2022/07/05 01:44:50;;;;;;;4.63;2.50;;;;;;;;;;6026716;29;20145;-79
2022/07/05 01:47:52;;;;;;;2.95;2.65;;;;;;;;;;6031800;29;20217;-80
2022/07/05 01:51:05;;;;;;;3.15;2.33;;;;;;;;;;6006936;29;20046;-80
2022/07/05 01:54:07;;;;;;;2.83;2.60;;;;;;;;;;6004082;29;20050;-81
2022/07/05 01:57:09;;;;;;;2.83;2.60;;;;;;;;;;5998451;29;20046;-81
2022/07/05 02:00:11;;;;;;;4.07;2.63;;;;;;;;;;6017731;29;20106;-80
2022/07/05 02:03:16;;;;;;;4.45;2.58;;;;;;;;;;6030286;29;20054;-81
2022/07/05 02:06:38;;;;;;;2.88;2.55;;;;;;;;;;6004534;29;20046;-81
2022/07/05 02:09:42;;;;;;;;;;;;;;;;;;6036883;29;20056;-80
2022/07/05 02:12:43;;;;;;;3.10;2.55;;;;;;;;;;6017985;29;19924;-80
2022/07/05 02:15:45;;;;;;;3.03;2.60;;;;;;;;;;6017529;29;20077;-80
2022/07/05 02:18:47;;;;;;;2.80;2.45;;;;;;;;;;6025088;29;20053;-81
2022/07/05 02:21:50;;;;;;;3.08;2.75;;;;;;;;;;6017752;29;20350;-81
2022/07/05 02:24:53;;;;;;;3.25;2.83;;;;;;;;;;6019250;29;20045;-81
2022/07/05 02:27:58;;;;;;;3.67;3.10;;;;;;;;;;6002431;29;20094;-81
2022/07/05 02:31:00;;;;;;;2.90;2.58;;;;;;;;;;6016100;29;20050;-81
2022/07/05 02:34:02;;;;;;;3.40;2.67;;;;;;;;;;6018730;29;20052;-81
2022/07/05 02:37:03;;;;;;;2.75;2.55;;;;;;;;;;6006856;29;20041;-80
2022/07/05 02:40:07;;;;;;;4.72;2.60;;;;;;;;;;6011561;29;20513;-79
2022/07/05 02:43:13;;;;;;;2.78;2.53;;;;;;;;;;5994776;29;20509;-79
2022/07/05 02:46:14;;;;;;;3.05;2.58;;;;;;;;;;6011266;29;20053;-80
2022/07/05 02:49:16;;;;;;;2.90;2.70;;;;;;;;;;6013626;29;20125;-80
2022/07/05 02:52:18;;;;;;;3.00;2.58;;;;;;;;;;6010817;29;20057;-79
2022/07/05 02:55:20;;;;;;;3.57;2.90;;;;;;;;;;5996466;29;20113;-80
2022/07/05 02:58:22;;;;;;;4.28;2.88;;;;;;;;;;6009840;29;20053;-79
2022/07/05 03:01:26;;;;;;;5.47;2.65;;;;;;;;;;6006262;29;20644;-80
2022/07/05 03:04:34;;;;;;;3.65;2.60;;;;;;;;;;6013667;29;20049;-80
2022/07/05 03:07:35;;;;;;;2.70;2.50;;;;;;;;;;6024247;29;20045;-80
2022/07/05 03:10:39;;;;;;;3.20;2.90;;;;;;;;;;6012568;29;20124;-80
2022/07/05 03:13:42;;;;;;;4.90;2.55;;;;;;;;;;6011098;29;20049;-80
2022/07/05 03:16:45;;;;;;;5.43;3.42;;;;;;;;;;6010322;29;20045;-80
2022/07/05 03:19:47;;;;;;;3.20;2.90;;;;;;;;;;6011495;29;20049;-80
2022/07/05 03:22:51;;;;;;;3.78;3.38;;;;;;;;;;5997795;29;20313;-80
2022/07/05 03:25:59;;;;;;;3.25;2.95;;;;;;;;;;6008254;29;20474;-79
2022/07/05 03:29:01;;;;;;;3.93;3.10;;;;;;;;;;5997599;29;20056;-79
2022/07/05 03:32:03;;;;;;;3.60;2.88;;;;;;;;;;6008059;29;20048;-79
2022/07/05 03:35:05;;;;;;;5.82;2.83;;;;;;;;;;5996330;29;20041;-80
2022/07/05 03:38:07;;;;;;;3.95;3.08;;;;;;;;;;6011471;29;20053;-79
2022/07/05 03:41:09;;;;;;;3.13;2.83;;;;;;;;;;6022572;29;20428;-80
2022/07/05 03:44:10;;;;;;;3.70;2.92;;;;;;;;;;6012079;29;20049;-79
2022/07/05 03:47:14;;;;;;;6.80;3.53;;;;;;;;;;5996841;29;20741;-80
2022/07/05 03:50:18;;;;;;;3.47;3.17;;;;;;;;;;6023685;29;20057;-79
2022/07/05 03:53:20;;;;;;;4.13;3.13;;;;;;;;;;6007981;29;20164;-79
2022/07/05 03:56:23;;;;;;;3.73;3.27;;;;;;;;;;6009331;29;20049;-79
2022/07/05 03:59:26;;;;;;;6.47;3.75;;;;;;;;;;5991229;29;20163;-79
2022/07/05 04:02:28;;;;;;;4.05;3.20;;;;;;;;;;6012513;29;20060;-80
2022/07/05 04:05:31;;;;;;;6.28;3.28;;;;;;;;;;5997931;29;20042;-81
2022/07/05 04:08:33;;;;;;;4.15;3.20;;;;;;;;;;6010848;29;20047;-78
2022/07/05 04:11:35;;;;;;;4.18;3.45;;;;;;;;;;6010929;29;21170;-79
2022/07/05 04:14:37;;;;;;;3.72;3.25;;;;;;;;;;6006977;29;20045;-80
2022/07/05 04:17:53;;;;;;;3.53;3.22;;;;;;;;;;6010406;29;20132;-80
2022/07/05 04:20:56;;;;;;;3.42;3.13;;;;;;;;;;6008339;29;20129;-78
2022/07/05 04:23:58;;;;;;;5.10;2.67;;;;;;;;;;6006890;29;20049;-78
2022/07/05 04:27:01;;;;;;;3.75;2.88;;;;;;;;;;6024145;29;20054;-78
2022/07/05 04:30:03;;;;;;;3.58;3.10;;;;;;;;;;5993957;29;20046;-79
2022/07/05 04:33:06;;;;;;;4.33;3.30;;;;;;;;;;6011599;29;20044;-78
2022/07/05 04:36:08;;;;;;;3.47;2.97;;;;;;;;;;6026175;29;20468;-77
2022/07/05 04:39:10;;;;;;;5.47;2.90;;;;;;;;;;6007973;29;20053;-78
2022/07/05 04:42:19;;;;;;;3.47;3.17;;;;;;;;;;6008553;29;20108;-79
2022/07/05 04:45:21;;;;;;;3.45;3.15;;;;;;;;;;6009197;29;20057;-79
2022/07/05 04:48:23;;;;;;;3.65;3.15;;;;;;;;;;6009113;29;20154;-80
2022/07/05 04:51:25;;;;;;;4.35;3.17;;;;;;;;;;6008888;29;20054;-78
2022/07/05 04:54:27;;;;;;;6.22;3.50;;;;;;;;;;6009983;29;20050;-79
2022/07/05 04:57:39;;;;;;;3.47;3.17;;;;;;;;;;6000637;29;20045;-80
2022/07/05 05:00:41;;;;;;;4.40;3.13;;;;;;;;;;5985903;29;20065;-79
2022/07/05 05:03:43;;;;;;;3.17;2.88;;;;;;;;;;6024520;29;20049;-81
2022/07/05 05:06:44;;;;;;;3.78;3.40;;;;;;;;;;6022776;29;20062;-80
2022/07/05 05:09:46;;;;;;;4.70;3.45;;;;;;;;;;6023291;29;20065;-79
2022/07/05 05:12:48;;;;;;;3.53;3.20;;;;;;;;;;6025453;29;20046;-79
2022/07/05 05:15:50;;;;;;;3.50;3.05;;;;;;;;;;6027683;29;20068;-78
2022/07/05 05:18:52;;;;;;;9.65;3.38;;;;;;;;;;6011577;29;20056;-79
2022/07/05 05:21:54;;;;;;;4.38;3.40;;;;;;;;;;6025567;29;20169;-79
2022/07/05 05:24:55;;;;;;;6.95;3.53;;;;;;;;;;6011476;29;20045;-79
2022/07/05 05:27:57;;;;;;;7.75;3.30;;;;;;;;;;6011149;29;20074;-79
2022/07/05 05:30:59;;;;;;;9.20;3.55;;;;;;;;;;6013941;29;20085;-78
2022/07/05 05:34:01;;;;;;;5.40;3.78;;;;;;;;;;6006888;29;20049;-78
2022/07/05 05:37:02;;;;;;;6.40;3.58;;;;;;;;;;6029030;29;20474;-80
2022/07/05 05:40:05;;;;;;;9.07;3.10;;;;;;;;;;6033007;29;20053;-80
2022/07/05 05:43:07;;;;;;;7.47;3.50;;;;;;;;;;6030855;29;20110;-80
2022/07/05 05:46:08;;;;;;;9.70;3.72;;;;;;;;;;6033132;29;20490;-80
2022/07/05 05:49:10;;;;;;;6.75;3.15;;;;;;;;;;6009515;29;20128;-80
2022/07/05 05:52:11;;;;;;;8.60;3.35;;;;;;;;;;6032666;29;20471;-80
2022/07/05 05:55:13;;;;;;;8.38;3.28;;;;;;;;;;6015003;29;20053;-78
2022/07/05 05:58:17;;;;;;;3.70;3.03;;;;;;;;;;6013534;29;20197;-79
2022/07/05 06:01:19;;;;;;;4.57;2.55;;;;;;;;;;6028234;29;20186;-78
2022/07/05 06:04:21;;;;;;;4.95;3.17;;;;;;;;;;6012887;29;20421;-78
2022/07/05 06:07:23;;;;;;;6.25;3.25;;;;;;;;;;6024901;29;20501;-79
2022/07/05 06:10:30;;;;;;;4.53;2.80;;;;;;;;;;6030048;29;20053;-78
2022/07/05 06:13:32;;;;;;;6.60;3.05;;;;;;;;;;6024504;29;20069;-79
2022/07/05 06:16:34;;;;;;;4.35;2.90;;;;;;;;;;6028978;29;20524;-80
2022/07/05 06:19:36;;;;;;;7.95;3.17;;;;;;;;;;6012728;29;20050;-79
2022/07/05 06:22:38;;;;;;;14.68;3.50;;;;;;;;;;6011806;29;20493;-80
2022/07/05 06:25:40;;;;;;;14.48;3.28;;;;;;;;;;6000959;29;20113;-81
2022/07/05 06:28:42;;;;;;;8.82;3.30;;;;;;;;;;5996958;29;20078;-78
2022/07/05 06:31:43;;;;;;;11.02;2.88;;;;;;;;;;6032241;29;20681;-79
2022/07/05 06:34:45;;;;;;;10.70;2.90;;;;;;;;;;6027873;29;20110;-79
2022/07/05 06:37:55;;;;;;;12.48;2.83;;;;;;;;;;6010984;29;20075;-80
2022/07/05 06:40:56;;;;;;;12.73;3.42;;;;;;;;;;6027707;29;20042;-80
2022/07/05 06:43:58;;;;;;;;;;;;;;;;;;6011854;29;20097;-80
2022/07/05 06:47:20;;;;;;;10.25;2.35;;;;;;;;;;6028064;29;19924;-78
2022/07/05 06:50:22;;;;;;;8.45;2.95;;;;;;;;;;6023773;29;20133;-78
2022/07/05 06:53:24;;;;;;;14.05;3.08;;;;;;;;;;6028002;29;20149;-77
2022/07/05 06:56:25;;;;;;;8.82;2.45;;;;;;;;;;5993102;29;20181;-77
2022/07/05 06:59:27;;;;;;;5.93;2.33;;;;;;;;;;6030129;29;20410;-79
2022/07/05 07:02:48;;;;;;;10.15;2.90;;;;;;;;;;6010326;29;21574;-78
2022/07/05 07:05:51;;;;;;;6.18;2.25;;;;;;;;;;5991283;29;20417;-80
2022/07/05 07:09:26;;;;;;;4.75;2.47;;;;;;;;;;6028808;29;20045;-79
2022/07/05 07:12:31;;;;;;;4.47;2.33;;;;;;;;;;6028203;29;20070;-82
2022/07/05 07:15:33;;;;;;;4.50;2.47;;;;;;;;;;6023869;29;20124;-79
2022/07/05 07:18:35;;;;;;;5.70;2.20;;;;;;;;;;6026433;29;20405;-79
2022/07/05 07:21:57;;;;;;;6.25;2.35;;;;;;;;;;6024501;29;20048;-79
2022/07/05 07:24:59;;;;;;;6.68;2.42;;;;;;;;;;5990491;29;20045;-79
2022/07/05 07:28:00;;;;;;;6.03;2.47;;;;;;;;;;6009148;29;20075;-79
2022/07/05 07:31:02;;;;;;;6.13;2.55;;;;;;;;;;6026358;29;20050;-78
2022/07/05 07:34:04;;;;;;;4.45;2.60;;;;;;;;;;6009453;29;20052;-79
2022/07/05 07:37:08;;;;;;;4.75;2.15;;;;;;;;;;6021579;29;20045;-79
2022/07/05 07:40:11;;;;;;;4.53;2.50;;;;;;;;;;6008945;29;20133;-81
2022/07/05 07:43:12;;;;;;;4.70;2.30;;;;;;;;;;6012237;29;20053;-82
2022/07/05 07:46:14;;;;;;;5.32;2.40;;;;;;;;;;6028998;29;20065;-84
2022/07/05 07:49:16;;;;;;;5.18;2.60;;;;;;;;;;6029279;29;20046;-80
2022/07/05 07:52:17;;;;;;;6.13;2.53;;;;;;;;;;5992147;29;20074;-82
2022/07/05 07:55:19;;;;;;;3.78;2.33;;;;;;;;;;5997518;29;20056;-83
2022/07/05 07:58:21;;;;;;;6.82;2.65;;;;;;;;;;6013187;29;20045;-81
2022/07/05 08:01:23;;;;;;;3.42;2.47;;;;;;;;;;6024817;29;20060;-82
2022/07/05 08:04:25;;;;;;;3.47;2.30;;;;;;;;;;6009088;29;20848;-78
2022/07/05 08:07:29;;;;;;;4.57;2.28;;;;;;;;;;6006689;29;20053;-77
2022/07/05 08:10:30;;;;;;;4.40;2.65;;;;;;;;;;6023110;29;20494;-78
2022/07/05 08:13:32;;;;;;;5.47;2.97;;;;;;;;;;6003766;29;20489;-78
2022/07/05 08:16:34;;;;;;;3.85;2.30;;;;;;;;;;6009670;29;20117;-79
2022/07/05 08:22:56;;;;;;;9.40;2.85;;;;;;;;;;6008102;29;22833;-78
2022/07/05 08:25:58;;;;;;;3.90;2.42;;;;;;;;;;6025571;29;20061;-79
2022/07/05 08:29:01;;;;;;;3.70;2.05;;;;;;;;;;6008964;29;20076;-79
2022/07/05 08:32:11;;;;;;;4.38;2.33;;;;;;;;;;6010633;29;20049;-79
2022/07/05 08:35:12;;;;;;;3.33;2.58;;;;;;;;;;6026054;29;22110;-79
2022/07/05 08:38:14;;;;;;;5.53;2.60;;;;;;;;;;6000868;29;20049;-79
2022/07/05 08:41:18;;;;;;;6.85;3.10;;;;;;;;;;6007298;29;20072;-78
2022/07/05 08:44:22;;;;;;;2.47;2.10;;;;;;;;;;6006463;29;20056;-78
2022/07/05 08:47:25;;;;;;;5.20;2.33;;;;;;;;;;6022722;29;20086;-79
2022/07/05 08:50:27;;;;;;;3.05;2.33;;;;;;;;;;6005744;29;20061;-79
2022/07/05 08:53:29;;;;;;;4.20;2.33;;;;;;;;;;6006709;29;20061;-78
2022/07/05 08:56:32;;;;;;;2.65;2.20;;;;;;;;;;6020805;29;20054;-78
2022/07/05 08:59:54;;;;;;;;;;;;;;;;;;6021612;29;20132;-79
2022/07/05 09:02:56;;;;;;;4.38;2.20;;;;;;;;;;6007611;29;19932;-79
2022/07/05 09:06:00;;;;;;;5.18;2.70;;;;;;;;;;6010151;29;20093;-79
2022/07/05 09:09:02;;;;;;;3.42;2.30;;;;;;;;;;6029596;29;20069;-79
2022/07/05 09:12:05;;;;;;;3.75;2.00;;;;;;;;;;6006268;29;20120;-79
2022/07/05 09:15:26;;;;;;;4.53;2.38;;;;;;;;;;6030213;29;20053;-79
2022/07/05 09:18:48;;;;;;;2.10;1.90;;;;;;;;;;6011045;29;20077;-77
2022/07/05 09:22:01;;;;;;;3.47;2.10;;;;;;;;;;6007217;29;20061;-78
2022/07/05 09:25:16;;;;;;;4.20;2.60;;;;;;;;;;6027485;29;20115;-77
2022/07/05 09:28:18;;;;;;;3.17;2.53;;;;;;;;;;6022838;29;20166;-77
2022/07/05 09:31:29;;;;;;;10.75;4.72;;;;;;;;;;6017823;29;20121;-77
2022/07/05 09:34:30;;;;;;;5.22;3.05;;;;;;;;;;6003051;29;20161;-78
2022/07/05 09:37:44;;;;;;;3.92;2.30;;;;;;;;;;6009316;29;20160;-78
2022/07/05 09:40:48;;;;;;;3.65;2.28;;;;;;;;;;6021493;29;20068;-78
2022/07/05 09:43:50;;;;;;;3.97;2.33;;;;;;;;;;6025575;29;20041;-78
2022/07/05 09:47:06;;;;;;;3.00;2.60;;;;;;;;;;6026549;29;20082;-78
2022/07/05 09:50:09;;;;;;;2.53;2.15;;;;;;;;;;6020959;29;20062;-78
2022/07/05 09:53:12;;;;;;;4.93;3.38;;;;;;;;;;6024657;29;20390;-79
2022/07/05 09:56:13;;;;;;;4.40;2.30;;;;;;;;;;6025632;29;20049;-78
2022/07/05 09:59:20;;;;;;;3.53;2.30;;;;;;;;;;6007404;29;20046;-78
2022/07/05 10:02:36;;;;;;;5.13;2.40;;;;;;;;;;6023152;29;20469;-78
2022/07/05 10:05:38;;;;;;;4.88;2.50;;;;;;;;;;6006811;29;20053;-78
2022/07/05 10:08:40;;;;;;;2.97;2.43;;;;;;;;;;6024073;29;20070;-78
2022/07/05 10:11:43;;;;;;;3.90;2.20;;;;;;;;;;6026292;29;20117;-78
2022/07/05 10:14:45;;;;;;;5.07;2.70;;;;;;;;;;6027019;29;20080;-77
2022/07/05 10:18:01;;;;;;;3.55;2.40;;;;;;;;;;6026648;29;20505;-77
2022/07/05 10:21:04;;;;;;;3.10;2.22;;;;;;;;;;6006600;29;20179;-78
2022/07/05 10:24:05;;;;;;;;;;;;;;;;;;6017451;29;20450;-78
2022/07/05 10:27:08;;;;;;;3.20;2.47;;;;;;;;;;6024914;29;20373;-79
2022/07/05 10:30:10;;;;;;;;;;;;;;;;;;6025595;29;20042;-78
2022/07/05 10:33:16;;;;;;;2.10;1.92;;;;;;;;;;6024412;29;19953;-77
2022/07/05 10:36:18;;;;;;;2.60;2.40;;;;;;;;;;6022206;29;20053;-78
2022/07/05 10:39:23;;;;;;;3.00;2.70;;;;;;;;;;6022630;29;20571;-76
2022/07/05 10:42:34;;;;;;;4.05;2.65;;;;;;;;;;6021103;29;20077;-77
2022/07/05 10:45:41;;;;;;;4.15;2.78;;;;;;;;;;6019118;29;20194;-76
2022/07/05 10:48:42;;;;;;;5.30;2.67;;;;;;;;;;6024594;29;20047;-78
2022/07/05 10:51:44;;;;;;;4.30;2.70;;;;;;;;;;6007745;29;20070;-81
2022/07/05 10:55:19;;;;;;;3.65;2.15;;;;;;;;;;6017768;29;20109;-80
2022/07/05 10:58:22;;;;;;;2.95;2.30;;;;;;;;;;6001714;29;20637;-76
2022/07/05 11:01:23;;;;;;;3.50;2.33;;;;;;;;;;6002623;29;20178;-78
2022/07/05 11:04:27;;;;;;;2.60;1.87;;;;;;;;;;5987224;29;20194;-78
2022/07/05 11:07:58;;;;;;;2.25;2.05;;;;;;;;;;6004354;29;20530;-76
2022/07/05 11:11:11;;;;;;;2.95;2.03;;;;;;;;;;6002837;29;20098;-77
2022/07/05 11:14:19;;;;;;;2.83;2.20;;;;;;;;;;6012722;29;20054;-78
2022/07/05 11:17:29;;;;;;;2.53;2.10;;;;;;;;;;5996352;29;20064;-78
2022/07/05 11:21:21;;;;;;;2.20;2.00;;;;;;;;;;5998204;29;20049;-78
2022/07/05 11:24:25;;;;;;;4.38;2.10;;;;;;;;;;6023579;29;20137;-79
2022/07/05 11:27:27;;;;;;;3.35;1.90;;;;;;;;;;6022058;29;20049;-79
2022/07/05 11:30:28;;;;;;;4.15;1.90;;;;;;;;;;6025832;29;20653;-79
2022/07/05 11:33:44;;;;;;;3.63;1.92;;;;;;;;;;6024838;29;20501;-78
2022/07/05 11:37:24;;;;;;;4.20;2.00;;;;;;;;;;6005312;29;20137;-79
2022/07/05 11:40:40;;;;;;;3.70;2.08;;;;;;;;;;6018056;29;20053;-79
2022/07/05 11:43:42;;;;;;;3.17;2.10;;;;;;;;;;6022878;29;20061;-78
2022/07/05 11:46:44;;;;;;;;;;;;;;;;;;6025974;29;20042;-79
2022/07/05 11:49:56;;;;;;;3.92;2.00;;;;;;;;;;6030216;29;20027;-77
2022/07/05 11:53:01;;;;;;;2.67;2.40;;;;;;;;;;6022824;29;20577;-80
2022/07/05 11:56:06;;;;;;;2.67;2.22;;;;;;;;;;6027282;29;20716;-77
2022/07/05 11:59:18;;;;;;;4.85;2.75;;;;;;;;;;6019535;29;20124;-77
2022/07/05 12:02:20;;;;;;;2.10;1.90;;;;;;;;;;6005794;29;20551;-78
2022/07/05 12:05:22;;;;;;;4.43;2.20;;;;;;;;;;6019424;29;20173;-78
2022/07/05 12:08:25;;;;;;;3.75;2.70;;;;;;;;;;6020954;29;20052;-77
2022/07/05 12:14:51;;;;;;;2.97;2.00;;;;;;;;;;5973870;29;20178;-78
2022/07/05 12:17:54;;;;;;;3.22;2.60;;;;;;;;;;6003984;29;20086;-76
2022/07/05 12:20:57;;;;;;;2.53;2.33;;;;;;;;;;6002573;29;20502;-77
2022/07/05 12:23:59;;;;;;;3.45;2.05;;;;;;;;;;6021194;29;20069;-77
2022/07/05 12:27:01;;;;;;;4.00;2.63;;;;;;;;;;6018528;29;20458;-79
2022/07/05 12:30:04;;;;;;;3.22;2.20;;;;;;;;;;6020354;29;20050;-81
2022/07/05 12:33:09;;;;;;;3.47;2.00;;;;;;;;;;5997104;29;20046;-79
2022/07/05 12:36:13;;;;;;;2.53;1.90;;;;;;;;;;6014648;29;20509;-80
2022/07/05 12:39:18;;;;;;;2.00;1.90;;;;;;;;;;6024052;29;20179;-83
2022/07/05 12:42:36;;;;;;;2.42;1.90;;;;;;;;;;6024174;29;20361;-80
2022/07/05 12:45:40;;;;;;;2.65;1.70;;;;;;;;;;6031273;29;20045;-82
2022/07/05 12:48:41;;;;;;;2.38;1.75;;;;;;;;;;6035805;29;20057;-81
2022/07/05 12:51:44;;;;;;;2.23;1.90;;;;;;;;;;6018776;29;20057;-83
2022/07/05 12:58:26;;;;;;;2.13;1.80;;;;;;;;;;6034212;29;20072;-83
2022/07/05 13:01:38;;;;;;;2.58;2.00;;;;;;;;;;6016655;29;20105;-83
2022/07/05 13:04:53;;;;;;;2.03;1.80;;;;;;;;;;6036947;29;20049;-83
2022/07/05 13:07:54;;;;;;;1.83;1.73;;;;;;;;;;6018247;29;20058;-84
2022/07/05 13:10:57;;;;;;;;;;;;;;;;;;5987343;29;20054;-77
2022/07/05 13:13:58;;;;;;;1.77;1.50;;;;;;;;;;6003104;29;20011;-77
2022/07/05 13:17:00;;;;;;;2.60;1.67;;;;;;;;;;6021022;29;20057;-79
2022/07/05 13:20:03;;;;;;;1.83;1.40;;;;;;;;;;6021162;29;20455;-77
2022/07/05 13:23:05;;;;;;;1.60;1.50;;;;;;;;;;6000003;29;20480;-78
2022/07/05 13:26:07;;;;;;;2.27;1.50;;;;;;;;;;6003223;29;20086;-78
2022/07/05 13:29:09;;;;;;;1.58;1.40;;;;;;;;;;6002028;29;20470;-79
2022/07/05 13:32:10;;;;;;;1.80;1.47;;;;;;;;;;6020058;29;20218;-78
2022/07/05 13:35:12;;;;;;;1.60;1.50;;;;;;;;;;6003498;29;20826;-77
2022/07/05 13:38:14;;;;;;;1.55;1.42;;;;;;;;;;6018774;29;20060;-79
2022/07/05 13:41:15;;;;;;;2.03;1.50;;;;;;;;;;6019991;29;20049;-78
2022/07/05 13:44:17;;;;;;;2.58;1.60;;;;;;;;;;6009639;29;20554;-79
2022/07/05 13:47:19;;;;;;;1.98;1.30;;;;;;;;;;5989830;29;20054;-80
2022/07/05 13:50:32;;;;;;;1.80;1.40;;;;;;;;;;6002589;29;20049;-79
2022/07/05 13:53:36;;;;;;;2.17;1.45;;;;;;;;;;6007194;29;20085;-80
2022/07/05 13:56:38;;;;;;;1.45;1.30;;;;;;;;;;6011630;29;20131;-78
2022/07/05 13:59:39;;;;;;;2.33;1.45;;;;;;;;;;5992354;29;20136;-78
2022/07/05 14:02:42;;;;;;;1.75;1.65;;;;;;;;;;6018567;29;20516;-78
2022/07/05 14:05:44;;;;;;;3.28;1.73;;;;;;;;;;6022568;29;20132;-79
2022/07/05 14:08:46;;;;;;;1.90;1.42;;;;;;;;;;6024848;29;20046;-77
2022/07/05 14:11:47;;;;;;;2.17;1.52;;;;;;;;;;6024693;29;20441;-79
2022/07/05 14:14:49;;;;;;;2.17;1.50;;;;;;;;;;6007343;29;20395;-77
2022/07/05 14:17:51;;;;;;;1.55;1.45;;;;;;;;;;5990351;29;20045;-78
2022/07/05 14:20:53;;;;;;;1.95;1.52;;;;;;;;;;6009606;29;20045;-78
2022/07/05 14:23:55;;;;;;;1.85;1.40;;;;;;;;;;6013143;29;20107;-79
2022/07/05 14:26:56;;;;;;;3.00;1.65;;;;;;;;;;6023090;29;20110;-78
2022/07/05 14:29:58;;;;;;;2.20;2.00;;;;;;;;;;6004478;29;20057;-79
2022/07/05 14:33:00;;;;;;;1.60;1.50;;;;;;;;;;5996914;29;20097;-78
2022/07/05 14:36:03;;;;;;;6.13;1.65;;;;;;;;;;6005044;29;20070;-79
2022/07/05 14:39:04;;;;;;;2.83;1.73;;;;;;;;;;6006591;29;20041;-79
2022/07/05 14:42:06;;;;;;;3.60;1.88;;;;;;;;;;6021390;29;20125;-78
2022/07/05 14:45:08;;;;;;;2.55;2.15;;;;;;;;;;6023632;29;20073;-78
2022/07/05 14:48:09;;;;;;;2.03;1.70;;;;;;;;;;6023822;29;20102;-78
2022/07/05 14:51:11;;;;;;;2.78;1.77;;;;;;;;;;6018309;29;20133;-78
2022/07/05 14:54:13;;;;;;;2.28;2.08;;;;;;;;;;6022901;29;20178;-78
2022/07/05 14:57:15;;;;;;;3.00;2.00;;;;;;;;;;6022572;29;20100;-79
2022/07/05 15:00:16;;;;;;;3.65;2.20;;;;;;;;;;6006249;29;20042;-79
2022/07/05 15:03:18;;;;;;;2.22;1.77;;;;;;;;;;6005117;29;20140;-78
2022/07/05 15:06:21;;;;;;;3.30;2.10;;;;;;;;;;6006155;29;20077;-80
2022/07/05 15:09:23;;;;;;;3.45;2.13;;;;;;;;;;6023696;29;20190;-78
2022/07/05 15:12:24;;;;;;;2.17;2.00;;;;;;;;;;6021101;29;20102;-79
2022/07/05 15:15:26;;;;;;;4.57;2.10;;;;;;;;;;6019089;29;20421;-80
2022/07/05 15:18:28;;;;;;;2.90;2.20;;;;;;;;;;5994673;29;20627;-78
2022/07/05 15:21:29;;;;;;;2.40;2.08;;;;;;;;;;5994804;29;20525;-78
2022/07/05 15:24:31;;;;;;;1.83;1.73;;;;;;;;;;5996812;29;20564;-77
2022/07/05 15:27:33;;;;;;;2.28;1.85;;;;;;;;;;5997424;29;20071;-79
2022/07/05 15:30:35;;;;;;;3.03;1.88;;;;;;;;;;6011358;29;20527;-79
2022/07/05 15:33:36;;;;;;;2.13;1.90;;;;;;;;;;6008556;29;20045;-78
2022/07/05 15:36:38;;;;;;;2.78;1.80;;;;;;;;;;5994319;29;20110;-79
2022/07/05 15:39:39;;;;;;;2.40;1.75;;;;;;;;;;5979034;29;20049;-79
2022/07/05 15:42:42;;;;;;;3.05;2.10;;;;;;;;;;6011456;29;20053;-78
2022/07/05 15:45:43;;;;;;;2.03;1.83;;;;;;;;;;6013413;29;20103;-78
2022/07/05 15:48:45;;;;;;;2.40;2.00;;;;;;;;;;5990501;29;20078;-79
2022/07/05 15:51:47;;;;;;;2.65;1.80;;;;;;;;;;5996472;29;20045;-79
2022/07/05 15:54:49;;;;;;;2.28;1.85;;;;;;;;;;6010438;29;20053;-78
2022/07/05 15:57:51;;;;;;;2.85;1.60;;;;;;;;;;6006777;29;20513;-79
2022/07/05 16:00:53;;;;;;;2.17;1.83;;;;;;;;;;6024776;29;20087;-79
2022/07/05 16:03:55;;;;;;;4.40;1.83;;;;;;;;;;6020394;29;20517;-78
2022/07/05 16:06:58;;;;;;;3.65;1.70;;;;;;;;;;6017168;29;20102;-78
2022/07/05 16:09:59;;;;;;;2.13;1.75;;;;;;;;;;6024100;29;20050;-80
2022/07/05 16:13:24;;;;;;;2.03;1.80;;;;;;;;;;6015118;29;20152;-80
2022/07/05 16:16:26;;;;;;;4.50;1.73;;;;;;;;;;6024326;29;20169;-80
2022/07/05 16:19:29;;;;;;;1.80;1.60;;;;;;;;;;6003443;29;20058;-79
2022/07/05 16:22:31;;;;;;;2.25;1.70;;;;;;;;;;5990690;29;20113;-79
2022/07/05 16:25:32;;;;;;;2.35;1.70;;;;;;;;;;6023507;29;20523;-79
2022/07/05 16:28:37;;;;;;;1.57;1.47;;;;;;;;;;5992129;29;20044;-80
2022/07/05 16:31:39;;;;;;;4.03;2.05;;;;;;;;;;6009626;29;20535;-79
2022/07/05 16:34:41;;;;;;;2.85;1.70;;;;;;;;;;6005671;29;20046;-79
2022/07/05 16:37:42;;;;;;;1.83;1.70;;;;;;;;;;6024454;29;20096;-79
2022/07/05 16:40:44;;;;;;;2.47;1.52;;;;;;;;;;6005882;29;20541;-79
2022/07/05 16:43:46;;;;;;;1.80;1.70;;;;;;;;;;6023934;29;20061;-79
2022/07/05 16:46:48;;;;;;;;;;;;;;;;;;6006078;29;20993;-79
2022/07/05 16:49:50;;;;;;;3.28;1.55;;;;;;;;;;6013727;29;19956;-78
2022/07/05 16:52:51;;;;;;;2.47;1.50;;;;;;;;;;6018882;29;20075;-79
2022/07/05 16:55:53;;;;;;;1.97;1.43;;;;;;;;;;6004402;29;20128;-77
2022/07/05 16:58:55;;;;;;;1.77;1.50;;;;;;;;;;6002628;29;20122;-77
2022/07/05 17:01:56;;;;;;;2.38;1.70;;;;;;;;;;6013686;29;20069;-78
2022/07/05 17:04:58;;;;;;;1.50;1.40;;;;;;;;;;6018892;29;20052;-78
2022/07/05 17:08:00;;;;;;;2.10;1.48;;;;;;;;;;6018777;29;20816;-78
2022/07/05 17:11:02;;;;;;;2.25;1.58;;;;;;;;;;6012164;29;20109;-78
2022/07/05 17:14:03;;;;;;;1.85;1.40;;;;;;;;;;6013203;29;20394;-78
2022/07/05 17:17:05;;;;;;;2.40;1.73;;;;;;;;;;5999516;29;20128;-78
2022/07/05 17:20:08;;;;;;;1.50;1.30;;;;;;;;;;6016968;29;20143;-76
2022/07/05 17:23:09;;;;;;;3.58;1.58;;;;;;;;;;6021133;29;20058;-78
2022/07/05 17:26:16;;;;;;;1.93;1.43;;;;;;;;;;6022760;29;20117;-77
2022/07/05 17:29:20;;;;;;;1.88;1.23;;;;;;;;;;6023979;29;20042;-77
2022/07/05 17:32:23;;;;;;;2.05;1.50;;;;;;;;;;6006367;29;20060;-78
2022/07/05 17:35:25;;;;;;;1.63;1.37;;;;;;;;;;6024088;29;20053;-78
2022/07/05 17:38:28;;;;;;;2.33;1.40;;;;;;;;;;6003269;29;20046;-77
2022/07/05 17:41:29;;;;;;;1.60;1.30;;;;;;;;;;6002720;29;20049;-77
2022/07/05 17:44:31;;;;;;;6.22;1.45;;;;;;;;;;6011342;29;20482;-77
2022/07/05 17:47:33;;;;;;;2.72;1.35;;;;;;;;;;6023615;29;20137;-76
2022/07/05 17:50:35;;;;;;;3.85;1.60;;;;;;;;;;5989263;29;20515;-77
2022/07/05 17:53:50;;;;;;;2.35;1.40;;;;;;;;;;6020433;29;20057;-77
2022/07/05 17:56:51;;;;;;;1.50;1.40;;;;;;;;;;6005355;29;20074;-77
2022/07/05 18:00:00;;;;;;;2.85;1.63;;;;;;;;;;6023183;29;20056;-77
2022/07/05 18:03:12;;;;;;;1.92;1.50;;;;;;;;;;6007851;29;20456;-77
2022/07/05 18:06:16;;;;;;;2.30;1.52;;;;;;;;;;6005587;29;20197;-77
2022/07/05 18:09:18;;;;;;;1.60;1.50;;;;;;;;;;6007037;29;20045;-77
2022/07/05 18:12:20;;;;;;;2.00;1.45;;;;;;;;;;6009293;29;20058;-77
2022/07/05 18:15:23;;;;;;;3.43;1.50;;;;;;;;;;6021435;29;20120;-77
2022/07/05 18:18:24;;;;;;;;;;;;;;;;;;6003965;29;20148;-77
2022/07/05 18:21:26;;;;;;;1.60;1.50;;;;;;;;;;6013401;29;19931;-77
2022/07/05 18:24:28;;;;;;;1.60;1.50;;;;;;;;;;6022342;29;20056;-77
2022/07/05 18:27:30;;;;;;;2.93;1.60;;;;;;;;;;6020790;29;20110;-77
2022/07/05 18:30:32;;;;;;;1.75;1.42;;;;;;;;;;6017727;29;20046;-76
2022/07/05 18:33:33;;;;;;;1.70;1.60;;;;;;;;;;6000080;29;20058;-77
2022/07/05 18:36:35;;;;;;;2.03;1.60;;;;;;;;;;6021439;29;20494;-77